• Join FlightAware (Why Join?)
  • Login
  • US Flag 
12:38PM EST


 

Airport Tracker/Info


-or-


 

Live Flight TrackerFlight Track Log ✈ N119AF ✈ 03-May-2013 ✈ KPSM - EGGW / LTN

Flight Track Log - Related Links

Times and Time Zones

All times are in EDT time to prevent confusion due to time zone crossing. See the N119AF flight status page for this flight to view local times or setup timezone preferences in your user account.

Time Position Orientation Groundspeed Altitude Reporting Facility
EDT Latitude Longitude Course Direction KTS MPH feet Rate Location/Type
11:24AM 43.0333 -70.7833 144° Southeast 194 223 2,300  Level KA90
11:25AM 43.0000 -70.7500 144° Southeast 224 258 4,100 3,000 Climbing KA90
11:27AM 43.0917 -70.7000 22° Northeast 180 207 9,500 2,640 Climbing Boston Center
11:28AM 43.1661 -70.6781 12° North 221 254 11,200 2,040 Climbing Boston Center
11:29AM 43.2550 -70.6242 24° Northeast 320 368 13,600 2,400 Climbing Boston Center
11:30AM 43.3311 -70.5561 33° Northeast 353 406 16,100 2,160 Climbing Boston Center
11:31AM 43.4214 -70.4733 34° Northeast 365 420 18,000 1,920 Climbing Boston Center
11:32AM 43.5014 -70.3964 35° Northeast 371 427 20,000 2,040 Climbing Boston Center
11:33AM 43.5894 -70.3131 34° Northeast 371 427 22,100 2,160 Climbing Boston Center
11:34AM 43.6756 -70.2356 33° Northeast 371 427 24,400 2,280 Climbing Boston Center
11:35AM 43.7756 -70.1397 35° Northeast 376 433 26,700 1,980 Climbing Boston Center
11:36AM 43.8556 -70.0675 33° Northeast 384 442 28,400 1,800 Climbing Boston Center
11:37AM 43.9517 -69.9772 34° Northeast 384 442 30,400 1,740 Climbing Boston Center
11:38AM 44.0394 -69.8928 35° Northeast 384 442 31,900 1,560 Climbing Boston Center
11:39AM 44.1250 -69.8111 34° Northeast 384 442 33,600 1,620 Climbing Boston Center
11:40AM 44.2128 -69.7289 34° Northeast 384 442 35,200 1,320 Climbing Boston Center
11:41AM 44.2983 -69.6494 34° Northeast 379 436 36,300 1,200 Climbing Boston Center
11:42AM 44.3839 -69.5669 35° Northeast 379 436 37,700 1,200 Climbing Boston Center
11:43AM 44.4692 -69.4844 35° Northeast 374 430 38,700 900 Climbing Boston Center
11:44AM 44.5547 -69.4014 35° Northeast 368 423 39,500 720 Climbing Boston Center
11:45AM 44.6400 -69.3183 35° Northeast 368 423 40,200 600 Climbing Boston Center
11:46AM 44.7272 -69.2375 33° Northeast 368 423 40,700 360 Climbing Boston Center
11:47AM 44.8144 -69.1478 36° Northeast 373 429 41,000 120 Climbing Boston Center
11:48AM 44.9036 -69.0639 34° Northeast 373 429 41,000  Level Boston Center
11:49AM 44.9950 -68.9761 34° Northeast 384 442 41,000  Level Boston Center
11:50AM 45.0878 -68.8825 35° Northeast 395 455 41,000  Level Boston Center
11:51AM 45.1811 -68.7942 34° Northeast 400 460 41,000  Level Boston Center
11:52AM 45.2922 -68.6839 35° Northeast 400 460 41,000  Level Boston Center
11:53AM 45.3850 -68.5922 35° Northeast 400 460 41,000  Level Boston Center
11:54AM 45.4775 -68.4972 36° Northeast 406 467 41,000  Level Boston Center
11:55AM 45.5703 -68.4047 35° Northeast 406 467 41,000  Level Boston Center
11:56AM 45.6325 -68.3411 36° Northeast 406 467 41,000  Level Boston Center
11:57AM 45.7492 -68.2167 37° Northeast 406 467 41,000  Level Boston Center
11:58AM 45.8394 -68.1236 36° Northeast 401 461 41,000  Level Boston Center
11:59AM 45.9519 -68.0103 35° Northeast 401 461 41,000  Level Boston Center
12:00PM 46.0381 -67.9258 34° Northeast 409 471 41,000  Level Boston Center
12:01PM 46.1303 -67.8317 35° Northeast 409 471 41,000  Level Boston Center
12:02PM 46.2203 -67.7342 37° Northeast 409 471 41,000  Level Boston Center
12:03PM 46.3125 -67.6453 34° Northeast 403 464 41,000  Level Boston Center
12:04PM 46.4019 -67.5444 38° Northeast 411 473 41,000  Level Boston Center
12:05PM 46.4958 -67.4486 35° Northeast 411 473 41,000  Level Boston Center
12:06PM 46.5875 -67.3500 36° Northeast 411 473 41,000  Level Boston Center
12:07PM 46.6811 -67.2536 35° Northeast 411 473 41,000  Level Boston Center
12:08PM 46.7525 -67.1742 37° Northeast 411 473 41,000  Level Boston Center
12:09PM 46.8719 -67.0506 35° Northeast 411 473 41,000  Level Boston Center
12:10PM 46.9833 -66.9500 32° Northeast 410 472 41,000  Level Moncton Center
12:11PM 47.0833 -66.8500 34° Northeast 420 483 41,000  Level Moncton Center
12:12PM 47.1667 -66.7833 29° Northeast 410 472 41,000  Level Moncton Center
12:13PM 47.2833 -66.7000 26° Northeast 410 472 41,000  Level Moncton Center
12:14PM 47.3833 -66.6000 34° Northeast 410 472 41,000  Level Moncton Center
12:15PM 47.4833 -66.5333 24° Northeast 410 472 41,000  Level Moncton Center
12:16PM 47.5833 -66.4333 34° Northeast 420 483 41,000  Level Moncton Center
12:17PM 47.6833 -66.3333 34° Northeast 420 483 41,000  Level Moncton Center
12:18PM 47.7833 -66.2667 24° Northeast 420 483 41,000  Level Moncton Center
12:19PM 47.8833 -66.1667 34° Northeast 420 483 41,000  Level Moncton Center
12:20PM 47.9667 -66.0667 39° Northeast 420 483 41,000  Level Moncton Center
12:21PM 48.0833 -65.9833 26° Northeast 420 483 41,000  Level Moncton Center
12:22PM 48.1833 -65.9000 29° Northeast 420 483 41,000  Level Moncton Center
12:23PM 48.2833 -65.8000 34° Northeast 420 483 41,000  Level Moncton Center
12:24PM 48.3833 -65.7000 34° Northeast 410 472 41,000  Level Moncton Center
12:25PM 48.4833 -65.6333 24° Northeast 410 472 41,000  Level Moncton Center
12:26PM 48.5833 -65.5333 33° Northeast 410 472 41,000  Level Moncton Center
12:27PM 48.6667 -65.4667 28° Northeast 410 472 41,000  Level Moncton Center
12:28PM 48.7833 -65.3667 29° Northeast 420 483 41,000  Level Moncton Center
12:29PM 48.8667 -65.2667 38° Northeast 420 483 41,000  Level Moncton Center
12:30PM 48.9667 -65.1667 33° Northeast 420 483 41,000  Level Moncton Center
12:31PM 49.0667 -65.0833 29° Northeast 420 483 41,000  Level Moncton Center
12:32PM 49.1667 -64.9833 33° Northeast 410 472 41,000  Level Moncton Center
12:33PM 49.2667 -64.9167 24° Northeast 420 483 41,000  Level Moncton Center
12:34PM 49.3667 -64.8167 33° Northeast 420 483 41,000  Level Moncton Center
12:35PM 49.4667 -64.7000 37° Northeast 420 483 41,000  Level Moncton Center
12:36PM 49.5500 -64.6333 27° Northeast 410 472 41,000  Level Moncton Center
12:37PM 49.6000 -64.5833 33° Northeast 410 472 41,000  Level Gander Center
12:38PM 49.7000 -64.4833 33° Northeast 420 483 41,000  Level Gander Center
12:39PM 49.8167 -64.3833 29° Northeast 410 472 41,000  Level Gander Center
12:39PM 49.8667 -64.3500 23° Northeast 410 472 41,000  Level Moncton Center
12:40PM 49.9667 -64.2333 37° Northeast 420 483 41,000  Level Moncton Center
12:41PM 50.0667 -64.1333 33° Northeast 420 483 41,000  Level Moncton Center
12:42PM 50.1000 -64.1000 33° Northeast 420 483 41,000  Level Gander Center
12:43PM 50.2000 -64.0000 33° Northeast 420 483 41,000  Level Gander Center
12:44PM 50.3000 -63.9000 33° Northeast 420 483 41,000  Level Gander Center
12:45PM 50.4000 -63.8333 23° Northeast 420 483 41,000  Level Gander Center
12:46PM 50.5000 -63.7333 32° Northeast 410 472 41,000  Level Gander Center
12:47PM 50.5833 -63.6333 37° Northeast 420 483 41,000  Level Gander Center
12:48PM 50.6833 -63.5333 32° Northeast 420 483 41,000  Level Gander Center
12:49PM 50.7833 -63.4167 36° Northeast 420 483 41,000  Level Gander Center
12:50PM 50.8833 -63.3167 32° Northeast 420 483 41,000  Level Gander Center
12:51PM 50.9833 -63.2167 32° Northeast 420 483 41,000  Level Gander Center
12:52PM 51.0667 -63.1167 37° Northeast 420 483 41,000  Level Gander Center
12:52PM 51.1333 -63.0667 25° Northeast 410 472 41,000  Level Moncton Center
12:53PM 51.1833 -63.0167 32° Northeast 420 483 41,000  Level Gander Center
12:54PM 51.2833 -62.9167 32° Northeast 420 483 41,000  Level Gander Center
12:54PM 51.3167 -62.8667 43° Northeast 410 472 41,000  Level Moncton Center
12:55PM 51.3833 -62.8167 25° Northeast 410 472 41,000  Level Gander Center
12:56PM 51.4667 -62.7333 32° Northeast 420 483 41,000  Level Gander Center
12:57PM 51.5667 -62.6333 32° Northeast 420 483 41,000  Level Gander Center
12:58PM 51.6667 -62.5167 36° Northeast 420 483 41,000  Level Gander Center
12:59PM 51.7500 -62.4167 37° Northeast 420 483 41,000  Level Gander Center
12:59PM 51.8167 -62.3333 38° Northeast 420 483 41,000  Level Moncton Center
01:00PM 51.8500 -62.3167 17° North 420 483 41,000  Level Gander Center
01:01PM 51.9500 -62.2000 36° Northeast 420 483 41,000  Level Gander Center
01:02PM 52.0500 -62.1000 32° Northeast 420 483 41,000  Level Gander Center
01:03PM 52.1500 -61.9833 36° Northeast 420 483 41,000  Level Gander Center
01:04PM 52.2500 -61.8833 31° Northeast 420 483 41,000  Level Gander Center
01:04PM 52.3000 -61.8000 46° Northeast 420 483 41,000  Level Moncton Center
01:05PM 52.3833 -61.6833 40° Northeast 430 495 41,000  Level Moncton Center
01:06PM 52.4500 -61.6167 31° Northeast 430 495 41,000  Level Gander Center
01:07PM 52.5333 -61.5000 40° Northeast 430 495 41,000  Level Gander Center
01:08PM 52.6167 -61.4000 36° Northeast 430 495 41,000  Level Gander Center
01:09PM 52.7167 -61.2500 42° Northeast 430 495 41,000  Level Gander Center
01:10PM 52.8000 -61.1167 44° Northeast 430 495 41,000  Level Gander Center
01:11PM 52.9000 -61.0000 35° Northeast 430 495 41,000  Level Gander Center
01:12PM 52.9833 -60.8667 44° Northeast 430 495 41,000  Level Gander Center
01:13PM 53.0833 -60.7333 39° Northeast 430 495 41,000  Level Gander Center
01:14PM 53.1667 -60.6167 40° Northeast 430 495 41,000  Level Gander Center
01:15PM 53.2667 -60.4667 42° Northeast 430 495 41,000  Level Gander Center
01:16PM 53.4000 -60.2667 42° Northeast 430 495 41,000  Level Moncton Center
01:17PM 53.4333 -60.2167 42° Northeast 440 506 41,000  Level Gander Center
01:18PM 53.5333 -60.0667 42° Northeast 440 506 41,000  Level Gander Center
01:19PM 53.6167 -59.9333 43° Northeast 440 506 41,000  Level Gander Center
01:20PM 53.7167 -59.8167 35° Northeast 440 506 41,000  Level Gander Center
01:21PM 53.8167 -59.6667 42° Northeast 450 518 41,000  Level Gander Center
01:22PM 53.9000 -59.5167 47° Northeast 450 518 41,000  Level Gander Center
01:23PM 54.0000 -59.3833 38° Northeast 440 506 41,000  Level Gander Center
01:24PM 54.1000 -59.2333 41° Northeast 440 506 41,000  Level Gander Center
01:25PM 54.1833 -59.1167 39° Northeast 450 518 41,000  Level Gander Center
01:26PM 54.2833 -58.9667 41° Northeast 450 518 41,000  Level Gander Center
01:27PM 54.3667 -58.8167 46° Northeast 450 518 41,000  Level Gander Center
01:28PM 54.4667 -58.6667 41° Northeast 450 518 41,000  Level Gander Center
01:29PM 54.5500 -58.5167 46° Northeast 450 518 41,000  Level Gander Center
01:30PM 54.6667 -58.3667 37° Northeast 460 529 41,000  Level Gander Center
01:31PM 54.7500 -58.2167 46° Northeast 460 529 41,000  Level Gander Center
01:32PM 54.8333 -58.0667 46° Northeast 460 529 41,000  Level Gander Center
01:33PM 54.9333 -57.9000 44° Northeast 460 529 41,000  Level Gander Center
01:34PM 55.0333 -57.7833 34° Northeast 460 529 41,000  Level Gander Center
01:35PM 55.1333 -57.6000 46° Northeast 460 529 41,000  Level Gander Center
01:36PM 55.2333 -57.4667 37° Northeast 460 529 41,000  Level Gander Center
01:37PM 55.3167 -57.2833 51° Northeast 470 541 41,000  Level Gander Center
01:38PM 55.4167 -57.1333 40° Northeast 470 541 41,000  Level Gander Center
01:39PM 55.5000 -56.9833 66° East 470 541 41,000  Level Gander Center
01:39PM 55.5167 -57.0167 66° East 468 539 41,000  Level ETMS Enhanced Traffic Management System
01:40PM 55.5667 -56.7667 61° Northeast 480 552 41,000  Level Gander Center
01:41PM 55.6167 -56.5500 68° East 480 552 41,000  Level Gander Center
01:42PM 55.6667 -56.3333 68° East 480 552 41,000  Level Gander Center
01:43PM 55.7167 -56.1167 68° East 480 552 41,000  Level Gander Center
01:44PM 55.7667 -55.9000 68° East 480 552 41,000  Level Gander Center
01:47PM 55.8400 -55.5928 67° East  Level FlightAware Approximate
01:54PM 56.1754 -54.1275 67° East  Level FlightAware Approximate
01:55PM 56.2219 -53.9161 68° East  Level FlightAware Approximate
01:56PM 56.2680 -53.7042 69° East  Level FlightAware Approximate
01:57PM 56.3138 -53.4917 69° East  Level FlightAware Approximate
01:58PM 56.3591 -53.2788 69° East  Level FlightAware Approximate
01:59PM 56.4042 -53.0654 69° East  Level FlightAware Approximate
02:00PM 56.4488 -52.8515 69° East  Level FlightAware Approximate
02:01PM 56.4931 -52.6370 69° East  Level FlightAware Approximate
02:02PM 56.5371 -52.4221 70° East  Level FlightAware Approximate
02:03PM 56.5806 -52.2066 70° East  Level FlightAware Approximate
02:04PM 56.6238 -51.9907 70° East  Level FlightAware Approximate
02:05PM 56.6666 -51.7743 70° East  Level FlightAware Approximate
02:06PM 56.7091 -51.5574 70° East  Level FlightAware Approximate
02:07PM 56.7511 -51.3400 70° East  Level FlightAware Approximate
02:08PM 56.7928 -51.1221 71° East  Level FlightAware Approximate
02:09PM 56.8341 -50.9037 71° East  Level FlightAware Approximate
02:10PM 56.8750 -50.6849 71° East  Level FlightAware Approximate
02:10PM 57.0000 -50.0000 65° Northeast 473 544 41,000  Level ETMS Enhanced Traffic Management System
02:11PM 56.9155 -50.4656 71° East  Level FlightAware Approximate
02:12PM 56.9557 -50.2458 71° East  Level FlightAware Approximate
02:13PM 56.9954 -50.0255 72° East  Level FlightAware Approximate
02:14PM 57.0468 -49.8138 65° Northeast  Level FlightAware Approximate
02:15PM 57.0995 -49.6023 65° Northeast  Level FlightAware Approximate
02:16PM 57.4303 -48.2260 67° East 473 544 41,000  Level FlightAware Transoceanic
02:17PM 57.4823 -48.0013 67° East 473 544 41,000  Level FlightAware Transoceanic
02:18PM 57.5339 -47.7760 67° East 473 544 41,000  Level FlightAware Transoceanic
02:19PM 57.5851 -47.5501 67° East 473 544 41,000  Level FlightAware Transoceanic
02:20PM 57.6359 -47.3236 67° East 473 544 41,000  Level FlightAware Transoceanic
02:21PM 57.6863 -47.0964 68° East 473 544 41,000  Level FlightAware Transoceanic
02:22PM 57.7363 -46.8685 68° East 473 544 41,000  Level FlightAware Transoceanic
02:23PM 57.7859 -46.6401 68° East 473 544 41,000  Level FlightAware Transoceanic
02:24PM 57.8350 -46.4110 68° East 473 544 41,000  Level FlightAware Transoceanic
02:25PM 57.8838 -46.1813 68° East 473 544 41,000  Level FlightAware Transoceanic
02:26PM 57.9321 -45.9510 69° East 473 544 41,000  Level FlightAware Transoceanic
02:27PM 57.9800 -45.7201 69° East 473 544 41,000  Level FlightAware Transoceanic
02:28PM 58.0275 -45.4885 69° East 473 544 41,000  Level FlightAware Transoceanic
02:29PM 58.0746 -45.2563 69° East 473 544 41,000  Level FlightAware Transoceanic
02:30PM 58.1213 -45.0236 69° East 473 544 41,000  Level FlightAware Transoceanic
02:31PM 58.1675 -44.7902 70° East 473 544 41,000  Level FlightAware Transoceanic
02:32PM 58.2133 -44.5562 70° East 473 544 41,000  Level FlightAware Transoceanic
02:33PM 58.2587 -44.3216 70° East 473 544 41,000  Level FlightAware Transoceanic
02:34PM 58.3036 -44.0864 70° East 473 544 41,000  Level FlightAware Transoceanic
02:35PM 58.3481 -43.8506 70° East 473 544 41,000  Level FlightAware Transoceanic
02:36PM 58.3922 -43.6142 71° East 473 544 41,000  Level FlightAware Transoceanic
02:37PM 58.4359 -43.3773 71° East 473 544 41,000  Level FlightAware Transoceanic
02:38PM 58.4791 -43.1397 71° East 473 544 41,000  Level FlightAware Transoceanic
02:39PM 58.5218 -42.9016 71° East 473 544 41,000  Level FlightAware Transoceanic
02:40PM 58.5642 -42.6629 71° East 473 544 41,000  Level FlightAware Transoceanic
02:41PM 58.6060 -42.4236 72° East 473 544 41,000  Level FlightAware Transoceanic
02:42PM 58.6475 -42.1837 72° East 473 544 41,000  Level FlightAware Transoceanic
02:43PM 58.6884 -41.9433 72° East 473 544 41,000  Level FlightAware Transoceanic
02:44PM 58.7290 -41.7023 72° East 473 544 41,000  Level FlightAware Transoceanic
02:45PM 58.7691 -41.4608 72° East 473 544 41,000  Level FlightAware Transoceanic
02:46PM 58.8087 -41.2187 73° East 473 544 41,000  Level FlightAware Transoceanic
02:47PM 58.8479 -40.9760 73° East 473 544 41,000  Level FlightAware Transoceanic
02:48PM 58.8866 -40.7328 73° East 473 544 41,000  Level FlightAware Transoceanic
02:49PM 58.9249 -40.4891 73° East 473 544 41,000  Level FlightAware Transoceanic
02:50PM 58.9627 -40.2448 73° East 473 544 41,000  Level FlightAware Transoceanic
02:50PM 59.0000 -40.0000 86° East 500 575 41,000  Level ETMS Enhanced Traffic Management System
02:51PM 58.9986 -40.0095 73° East  Level FlightAware Approximate
02:52PM 59.0340 -39.7737 74° East  Level FlightAware Approximate
02:53PM 59.0085 -39.7749 86° East  Level FlightAware Approximate
02:54PM 59.0173 -39.5299 86° East  Level FlightAware Approximate
02:55PM 59.0256 -39.2847 86° East  Level FlightAware Approximate
02:56PM 59.0653 -37.8414 88° East 500 575 41,000  Level FlightAware Transoceanic
02:57PM 59.0709 -37.5711 88° East 500 575 41,000  Level FlightAware Transoceanic
02:58PM 59.0760 -37.3007 88° East 500 575 41,000  Level FlightAware Transoceanic
02:59PM 59.0805 -37.0302 88° East 500 575 41,000  Level FlightAware Transoceanic
03:00PM 59.0844 -36.7596 88° East 500 575 41,000  Level FlightAware Transoceanic
03:01PM 59.0878 -36.4890 89° East 500 575 41,000  Level FlightAware Transoceanic
03:02PM 59.0906 -36.2184 89° East 500 575 41,000  Level FlightAware Transoceanic
03:03PM 59.0929 -35.9477 89° East 500 575 41,000  Level FlightAware Transoceanic
03:04PM 59.0946 -35.6769 89° East 500 575 41,000  Level FlightAware Transoceanic
03:05PM 59.0957 -35.4062 90° East 500 575 41,000  Level FlightAware Transoceanic
03:06PM 59.0963 -35.1354 90° East 500 575 41,000  Level FlightAware Transoceanic
03:07PM 59.0963 -34.8646 90° East 500 575 41,000  Level FlightAware Transoceanic
03:08PM 59.0957 -34.5938 90° East 500 575 41,000  Level FlightAware Transoceanic
03:09PM 59.0946 -34.3231 91° East 500 575 41,000  Level FlightAware Transoceanic
03:10PM 59.0929 -34.0523 91° East 500 575 41,000  Level FlightAware Transoceanic
03:11PM 59.0906 -33.7816 91° East 500 575 41,000  Level FlightAware Transoceanic
03:12PM 59.0878 -33.5110 91° East 500 575 41,000  Level FlightAware Transoceanic
03:13PM 59.0844 -33.2404 92° East 500 575 41,000  Level FlightAware Transoceanic
03:14PM 59.0805 -32.9698 92° East 500 575 41,000  Level FlightAware Transoceanic
03:15PM 59.0760 -32.6993 92° East 500 575 41,000  Level FlightAware Transoceanic
03:16PM 59.0709 -32.4289 92° East 500 575 41,000  Level FlightAware Transoceanic
03:17PM 59.0653 -32.1586 92° East 500 575 41,000  Level FlightAware Transoceanic
03:18PM 59.0591 -31.8883 93° East 500 575 41,000  Level FlightAware Transoceanic
03:19PM 59.0523 -31.6182 93° East 500 575 41,000  Level FlightAware Transoceanic
03:20PM 59.0450 -31.3482 93° East 500 575 41,000  Level FlightAware Transoceanic
03:21PM 59.0371 -31.0783 93° East 500 575 41,000  Level FlightAware Transoceanic
03:22PM 59.0287 -30.8085 94° East 500 575 41,000  Level FlightAware Transoceanic
03:23PM 59.0197 -30.5388 94° East 500 575 41,000  Level FlightAware Transoceanic
03:24PM 59.0101 -30.2693 94° East 500 575 41,000  Level FlightAware Transoceanic
03:25PM 59.0009 -30.0244 94° East  Level FlightAware Approximate
03:26PM 58.9913 -29.7796 94° East  Level FlightAware Approximate
03:26PM 59.0000 -30.0000 97° East 517 595 41,000  Level ETMS Enhanced Traffic Management System
03:27PM 58.9883 -29.8048 97° East  Level FlightAware Approximate
03:28PM 58.9733 -29.5611 97° East  Level FlightAware Approximate
03:29PM 58.9579 -29.3177 97° East  Level FlightAware Approximate
03:30PM 58.9419 -29.0744 97° East  Level FlightAware Approximate
03:31PM 58.9256 -28.8314 97° East  Level FlightAware Approximate
03:32PM 58.9087 -28.5887 98° East  Level FlightAware Approximate
03:33PM 58.8289 -27.5182 99° East 517 595 41,000  Level FlightAware Transoceanic
03:34PM 58.8070 -27.2440 99° East 517 595 41,000  Level FlightAware Transoceanic
03:35PM 58.7845 -26.9702 99° East 517 595 41,000  Level FlightAware Transoceanic
03:36PM 58.7614 -26.6967 99° East 517 595 41,000  Level FlightAware Transoceanic
03:37PM 58.7377 -26.4236 100° East 517 595 41,000  Level FlightAware Transoceanic
03:38PM 58.7134 -26.1509 100° East 517 595 41,000  Level FlightAware Transoceanic
03:39PM 58.6886 -25.8786 100° East 517 595 41,000  Level FlightAware Transoceanic
03:40PM 58.6632 -25.6067 100° East 517 595 41,000  Level FlightAware Transoceanic
03:41PM 58.6372 -25.3351 101° East 517 595 41,000  Level FlightAware Transoceanic
03:42PM 58.6107 -25.0640 101° East 517 595 41,000  Level FlightAware Transoceanic
03:43PM 58.5836 -24.7933 101° East 517 595 41,000  Level FlightAware Transoceanic
03:44PM 58.5559 -24.5230 101° East 517 595 41,000  Level FlightAware Transoceanic
03:45PM 58.5277 -24.2532 101° East 517 595 41,000  Level FlightAware Transoceanic
03:46PM 58.4989 -23.9838 102° East 517 595 41,000  Level FlightAware Transoceanic
03:47PM 58.4695 -23.7148 102° East 517 595 41,000  Level FlightAware Transoceanic
03:48PM 58.4395 -23.4463 102° East 517 595 41,000  Level FlightAware Transoceanic
03:49PM 58.4090 -23.1782 102° East 517 595 41,000  Level FlightAware Transoceanic
03:50PM 58.3780 -22.9106 103° East 517 595 41,000  Level FlightAware Transoceanic
03:51PM 58.3464 -22.6435 103° East 517 595 41,000  Level FlightAware Transoceanic
03:52PM 58.3142 -22.3769 103° East 517 595 41,000  Level FlightAware Transoceanic
03:53PM 58.2815 -22.1108 103° East 517 595 41,000  Level FlightAware Transoceanic
03:54PM 58.2482 -21.8451 104° East 517 595 41,000  Level FlightAware Transoceanic
03:55PM 58.2144 -21.5800 104° East 517 595 41,000  Level FlightAware Transoceanic
03:56PM 58.1800 -21.3153 104° East 517 595 41,000  Level FlightAware Transoceanic
03:57PM 58.1451 -21.0512 104° East 517 595 41,000  Level FlightAware Transoceanic
03:58PM 58.1096 -20.7876 104° East 517 595 41,000  Level FlightAware Transoceanic
03:59PM 58.0736 -20.5245 105° East 517 595 41,000  Level FlightAware Transoceanic
04:00PM 58.0371 -20.2620 105° East 517 595 41,000  Level FlightAware Transoceanic
04:01PM 58.0045 -20.0313 105° East  Level FlightAware Approximate
04:02PM 57.9715 -19.8010 105° East  Level FlightAware Approximate
04:03PM 57.9674 -19.8375 111° Southeast  Level FlightAware Approximate
04:04PM 57.9222 -19.6150 111° Southeast  Level FlightAware Approximate
04:05PM 57.8767 -19.3930 111° Southeast  Level FlightAware Approximate
04:06PM 57.8307 -19.1715 111° Southeast  Level FlightAware Approximate
04:07PM 57.7844 -18.9506 111° Southeast  Level FlightAware Approximate
04:08PM 57.7378 -18.7303 112° Southeast  Level FlightAware Approximate
04:09PM 57.6907 -18.5106 112° Southeast  Level FlightAware Approximate
04:10PM 57.6432 -18.2914 112° Southeast  Level FlightAware Approximate
04:11PM 57.5954 -18.0728 112° Southeast  Level FlightAware Approximate
04:12PM 57.5472 -17.8548 112° Southeast  Level FlightAware Approximate
04:13PM 57.4986 -17.6374 113° Southeast  Level FlightAware Approximate
04:14PM 57.4497 -17.4206 113° Southeast  Level FlightAware Approximate
04:15PM 57.4003 -17.2043 113° Southeast  Level FlightAware Approximate
04:16PM 57.3506 -16.9886 113° Southeast  Level FlightAware Approximate
04:17PM 57.3006 -16.7735 113° Southeast  Level FlightAware Approximate
04:18PM 57.2501 -16.5590 113° Southeast  Level FlightAware Approximate
04:19PM 57.1993 -16.3451 114° Southeast  Level FlightAware Approximate
04:20PM 57.1482 -16.1317 114° Southeast  Level FlightAware Approximate
04:21PM 57.0967 -15.9190 114° Southeast  Level FlightAware Approximate
04:22PM 57.0448 -15.7068 114° Southeast  Level FlightAware Approximate
04:23PM 56.9926 -15.4952 114° Southeast  Level FlightAware Approximate
04:24PM 56.9400 -15.2843 114° Southeast  Level FlightAware Approximate
04:25PM 56.8870 -15.0739 115° Southeast  Level FlightAware Approximate
04:26PM 56.8337 -14.8641 115° Southeast  Level FlightAware Approximate
04:27PM 56.7801 -14.6550 115° Southeast  Level FlightAware Approximate
04:28PM 56.7261 -14.4464 115° Southeast  Level FlightAware Approximate
04:29PM 56.6717 -14.2384 115° Southeast  Level FlightAware Approximate
04:30PM 56.6171 -14.0310 116° Southeast  Level FlightAware Approximate
04:31PM 56.5620 -13.8243 116° Southeast  Level FlightAware Approximate
04:32PM 56.5066 -13.6181 116° Southeast  Level FlightAware Approximate
04:33PM 56.4509 -13.4125 116° Southeast  Level FlightAware Approximate
04:34PM 56.3949 -13.2076 116° Southeast  Level FlightAware Approximate
04:35PM 56.3385 -13.0032 116° Southeast  Level FlightAware Approximate
04:36PM 56.2818 -12.7995 117° Southeast  Level FlightAware Approximate
04:37PM 56.2247 -12.5963 117° Southeast  Level FlightAware Approximate
04:38PM 56.1673 -12.3938 117° Southeast  Level FlightAware Approximate
04:39PM 56.1096 -12.1918 117° Southeast  Level FlightAware Approximate
04:40PM 56.0515 -11.9905 117° Southeast  Level FlightAware Approximate
04:41PM 55.9932 -11.7898 117° Southeast  Level FlightAware Approximate
04:42PM 55.9345 -11.5897 118° Southeast  Level FlightAware Approximate
04:43PM 55.8754 -11.3902 118° Southeast  Level FlightAware Approximate
04:44PM 55.8161 -11.1912 118° Southeast  Level FlightAware Approximate
04:45PM 55.7564 -10.9930 118° Southeast  Level FlightAware Approximate
04:46PM 55.6964 -10.7953 118° Southeast  Level FlightAware Approximate
04:47PM 55.6361 -10.5982 118° Southeast  Level FlightAware Approximate
04:48PM 55.5755 -10.4017 119° Southeast  Level FlightAware Approximate
04:49PM 55.5146 -10.2059 119° Southeast  Level FlightAware Approximate
04:50PM 55.4533 -10.0106 119° Southeast  Level FlightAware Approximate
04:51PM 55.3923 -9.8154 119° Southeast  Level FlightAware Approximate
04:51PM 55.2591 -8.9810 119° Southeast 470 541 43,500  Level FlightAware UK
04:51PM 55.2412 -8.9179 116° Southeast 468 539 43,500  Level FlightAware UK
04:51PM 55.2234 -8.8551 116° Southeast 470 541 43,500  Level FlightAware UK
04:52PM 55.2057 -8.7924 116° Southeast 464 534 43,500  Level FlightAware UK
04:52PM 55.1881 -8.7300 116° Southeast 462 532 43,500  Level FlightAware UK
04:52PM 55.1700 -8.6688 117° Southeast 464 534 43,500  Level FlightAware UK
04:52PM 55.1521 -8.6067 117° Southeast 464 534 43,500  Level FlightAware UK
04:53PM 55.1346 -8.5451 116° Southeast 462 532 43,500  Level FlightAware UK
04:53PM 55.1168 -8.4833 117° Southeast 464 534 43,500  Level FlightAware UK
04:53PM 55.0990 -8.4216 117° Southeast 466 536 43,500  Level FlightAware UK
04:54PM 55.0811 -8.3600 117° Southeast 468 539 43,500  Level FlightAware UK
04:54PM 55.0632 -8.2982 117° Southeast 466 536 43,500  Level FlightAware UK
04:54PM 55.0454 -8.2364 117° Southeast 468 539 43,500  Level FlightAware UK
04:55PM 55.0275 -8.1747 117° Southeast 464 534 43,500  Level FlightAware UK
04:55PM 55.0096 -8.1132 117° Southeast 462 532 43,500  Level FlightAware UK
04:55PM 54.9915 -8.0517 117° Southeast 462 532 43,500  Level FlightAware UK
04:55PM 54.9735 -7.9904 117° Southeast 462 532 43,500  Level FlightAware UK
04:56PM 54.9555 -7.9291 117° Southeast 462 532 43,500  Level FlightAware UK
04:56PM 54.9375 -7.8678 117° Southeast 462 532 43,500  Level FlightAware UK
04:56PM 54.9193 -7.8066 117° Southeast 464 534 43,500  Level FlightAware UK
04:57PM 54.9012 -7.7452 117° Southeast 464 534 43,500  Level FlightAware UK
04:57PM 54.8831 -7.6836 117° Southeast 466 536 43,500  Level FlightAware UK
04:57PM 54.8647 -7.6221 117° Southeast 466 536 43,500  Level FlightAware UK
04:58PM 54.8462 -7.5606 118° Southeast 466 536 43,500  Level FlightAware UK
04:58PM 54.8279 -7.4992 117° Southeast 464 534 43,500  Level FlightAware UK
04:58PM 54.8094 -7.4379 118° Southeast 460 529 43,500  Level FlightAware UK
04:58PM 54.7910 -7.3768 118° Southeast 464 534 43,500  Level FlightAware UK
04:59PM 54.7724 -7.3150 118° Southeast 464 534 43,500  Level FlightAware UK
04:59PM 54.7540 -7.2540 118° Southeast 462 532 43,500  Level FlightAware UK
04:59PM 54.7355 -7.1929 118° Southeast 462 532 43,500  Level FlightAware UK
05:00PM 54.7169 -7.1319 118° Southeast 466 536 43,500  Level FlightAware UK
05:00PM 54.6983 -7.0710 118° Southeast 468 539 43,500  Level FlightAware UK
05:00PM 54.6796 -7.0100 118° Southeast 468 539 43,500  Level FlightAware UK
05:01PM 54.6609 -6.9491 118° Southeast 466 536 43,500  Level FlightAware UK
05:01PM 54.6423 -6.8884 118° Southeast 468 539 43,500  Level FlightAware UK
05:01PM 54.6236 -6.8279 118° Southeast 466 536 43,500  Level FlightAware UK
05:01PM 54.6050 -6.7677 118° Southeast 466 536 43,500  Level FlightAware UK
05:02PM 54.5868 -6.7085 118° Southeast 464 534 43,500  Level FlightAware UK
05:02PM 54.5682 -6.6486 118° Southeast 462 532 43,500  Level FlightAware UK
05:02PM 54.5497 -6.5893 118° Southeast 462 532 43,500  Level FlightAware UK
05:03PM 54.5311 -6.5300 118° Southeast 462 532 43,500  Level FlightAware UK
05:03PM 54.5125 -6.4705 118° Southeast 460 529 43,500  Level FlightAware UK
05:03PM 54.4938 -6.4110 118° Southeast 460 529 43,500  Level FlightAware UK
05:04PM 54.4750 -6.3514 118° Southeast 460 529 43,500  Level FlightAware UK
05:04PM 54.4563 -6.2920 118° Southeast 462 532 43,500  Level FlightAware UK
05:04PM 54.4375 -6.2325 119° Southeast 460 529 43,500  Level FlightAware UK
05:04PM 54.4187 -6.1729 118° Southeast 462 532 43,500  Level FlightAware UK
05:05PM 54.3997 -6.1133 119° Southeast 462 532 43,500  Level FlightAware UK
05:05PM 54.3804 -6.0529 119° Southeast 462 532 43,500  Level FlightAware UK
05:05PM 54.3613 -5.9931 119° Southeast 464 534 43,500  Level FlightAware UK
05:06PM 54.3422 -5.9333 119° Southeast 466 536 43,500  Level FlightAware UK
05:06PM 54.3230 -5.8735 119° Southeast 466 536 43,500  Level FlightAware UK
05:06PM 54.3039 -5.8141 119° Southeast 462 532 43,500  Level FlightAware UK
05:07PM 54.2847 -5.7548 119° Southeast 460 529 43,500  Level FlightAware UK
05:07PM 54.2656 -5.6956 119° Southeast 458 527 43,500  Level FlightAware UK
05:07PM 54.2465 -5.6364 119° Southeast 460 529 43,500  Level FlightAware UK
05:07PM 54.2273 -5.5772 119° Southeast 462 532 43,500  Level FlightAware UK
05:08PM 54.2079 -5.5179 119° Southeast 462 532 43,500  Level FlightAware UK
05:08PM 54.1884 -5.4584 119° Southeast 462 532 43,500  Level FlightAware UK
05:08PM 54.1689 -5.3989 119° Southeast 464 534 43,500  Level FlightAware UK
05:09PM 54.1493 -5.3393 119° Southeast 464 534 43,500  Level FlightAware UK
05:09PM 54.1296 -5.2791 119° Southeast 462 532 43,500  Level FlightAware UK
05:09PM 54.1100 -5.2196 119° Southeast 464 534 43,500  Level FlightAware UK
05:10PM 54.0904 -5.1601 119° Southeast 462 532 43,500  Level FlightAware UK
05:10PM 54.0707 -5.1006 119° Southeast 464 534 43,500  Level FlightAware UK
05:10PM 54.0509 -5.0415 120° Southeast 464 534 43,500  Level FlightAware UK
05:10PM 54.0312 -4.9822 120° Southeast 464 534 43,500  Level FlightAware UK
05:11PM 54.0114 -4.9230 120° Southeast 462 532 43,500  Level FlightAware UK
05:11PM 53.9915 -4.8637 120° Southeast 462 532 43,500  Level FlightAware UK
05:11PM 53.9716 -4.8042 120° Southeast 464 534 43,500  Level FlightAware UK
05:12PM 53.9516 -4.7449 120° Southeast 462 532 43,500  Level FlightAware UK
05:12PM 53.9313 -4.6848 120° Southeast 460 529 43,500  Level FlightAware UK
05:12PM 53.9115 -4.6257 120° Southeast 460 529 43,500  Level FlightAware UK
05:13PM 53.8845 -4.5463 120° Southeast 462 532 43,500  Level FlightAware UK
05:13PM 53.8640 -4.4859 120° Southeast 460 529 43,500  Level FlightAware UK
05:13PM 53.8436 -4.4262 120° Southeast 464 534 43,500  Level FlightAware UK
05:14PM 53.8232 -4.3665 120° Southeast 468 539 43,500  Level FlightAware UK
05:14PM 53.8028 -4.3068 120° Southeast 466 536 43,500  Level FlightAware UK
05:14PM 53.7824 -4.2474 120° Southeast 462 532 43,500  Level FlightAware UK
05:14PM 53.7615 -4.1886 121° Southeast 460 529 43,500  Level FlightAware UK
05:15PM 53.7383 -4.1331 125° Southeast 460 529 43,500  Level FlightAware UK
05:15PM 53.7142 -4.0774 126° Southeast 462 532 43,500  Level FlightAware UK
05:15PM 53.6891 -4.0247 129° Southeast 462 532 43,500  Level FlightAware UK
05:16PM 53.6631 -3.9725 130° Southeast 462 532 43,500  Level FlightAware UK
05:16PM 53.6370 -3.9194 130° Southeast 464 534 43,500  Level FlightAware UK
05:16PM 53.6027 -3.8499 130° Southeast 464 534 43,500  Level FlightAware UK
05:17PM 53.5765 -3.7969 130° Southeast 466 536 43,500  Level FlightAware UK
05:17PM 53.5505 -3.7445 130° Southeast 464 534 43,500  Level FlightAware UK
05:17PM 53.5246 -3.6922 130° Southeast 468 539 43,500  Level FlightAware UK
05:18PM 53.4987 -3.6402 130° Southeast 468 539 43,500  Level FlightAware UK
05:18PM 53.4725 -3.5877 130° Southeast 468 539 43,500  Level FlightAware UK
05:18PM 53.4467 -3.5361 130° Southeast 470 541 43,500  Level FlightAware UK
05:18PM 53.4209 -3.4848 130° Southeast 472 543 43,500  Level FlightAware UK
05:19PM 53.3954 -3.4339 130° Southeast 468 539 43,500  Level FlightAware UK
05:19PM 53.3699 -3.3835 130° Southeast 468 539 43,500  Level FlightAware UK
05:19PM 53.3444 -3.3329 130° Southeast 464 534 43,500  Level FlightAware UK
05:20PM 53.3189 -3.2825 130° Southeast 464 534 43,500  Level FlightAware UK
05:20PM 53.2851 -3.2155 130° Southeast 464 534 43,500  Level FlightAware UK
05:20PM 53.2594 -3.1646 130° Southeast 462 532 43,500  Level FlightAware UK
05:21PM 53.2338 -3.1143 130° Southeast 464 534 43,500  Level FlightAware UK
05:21PM 53.2084 -3.0647 131° Southeast 462 532 43,500 -360 Level FlightAware UK
05:21PM 53.1824 -3.0139 130° Southeast 462 532 43,300 -1,500 Descending FlightAware UK
05:22PM 53.1562 -2.9624 130° Southeast 468 539 42,600 -2,340 Descending FlightAware UK
05:22PM 53.1294 -2.9102 131° Southeast 472 543 41,900 -2,520 Descending FlightAware UK
05:22PM 53.1027 -2.8581 130° Southeast 480 552 41,100 -2,700 Descending FlightAware UK
05:22PM 53.0760 -2.8060 131° Southeast 486 559 40,300 -2,520 Descending FlightAware UK
05:23PM 53.0493 -2.7543 131° Southeast 478 550 39,600 -2,520 Descending FlightAware UK
05:23PM 53.0228 -2.7027 131° Southeast 476 548 38,800 -2,520 Descending FlightAware UK
05:23PM 52.9962 -2.6514 131° Southeast 476 548 38,100 -2,520 Descending FlightAware UK
05:24PM 52.9698 -2.6005 131° Southeast 470 541 37,300 -2,640 Descending FlightAware UK
05:24PM 52.9431 -2.5493 131° Southeast 462 532 36,500 -2,520 Descending FlightAware UK
05:24PM 52.9172 -2.4996 131° Southeast 456 525 35,800 -2,580 Descending FlightAware UK
05:25PM 52.8911 -2.4490 130° Southeast 464 534 35,000 -2,280 Descending FlightAware UK
05:25PM 52.8678 -2.3937 125° Southeast 462 532 34,400 -2,460 Descending FlightAware UK
05:25PM 52.8440 -2.3418 127° Southeast 444 511 33,500 -4,020 Descending FlightAware UK
05:25PM 52.8197 -2.2885 127° Southeast 456 525 32,000 -4,200 Descending FlightAware UK
05:26PM 52.7869 -2.2164 127° Southeast 460 529 30,600 -3,600 Descending FlightAware UK
05:26PM 52.7623 -2.1628 127° Southeast 464 534 29,500 -3,540 Descending FlightAware UK
05:26PM 52.7378 -2.1093 127° Southeast 466 536 28,500 -3,180 Descending FlightAware UK
05:27PM 52.7135 -2.0556 127° Southeast 456 525 27,600 -2,880 Descending FlightAware UK
05:27PM 52.6902 -2.0042 127° Southeast 454 522 26,800 -2,880 Descending FlightAware UK
05:27PM 52.6663 -1.9527 127° Southeast 444 511 25,900 -3,180 Descending FlightAware UK
05:28PM 52.6430 -1.9024 127° Southeast 442 509 24,900 -3,000 Descending FlightAware UK
05:28PM 52.6202 -1.8525 127° Southeast 434 499 24,100 -2,880 Descending FlightAware UK
05:28PM 52.5981 -1.8038 127° Southeast 430 495 23,200 -3,000 Descending FlightAware UK
05:29PM 52.5757 -1.7545 127° Southeast 426 490 22,300 -2,220 Descending FlightAware UK
05:29PM 52.5542 -1.7069 127° Southeast 410 472 21,900 -1,500 Descending FlightAware UK
05:29PM 52.5338 -1.6618 127° Southeast 400 460 21,400 -1,860 Descending FlightAware UK
05:29PM 52.5137 -1.6174 127° Southeast 392 451 20,800 -2,340 Descending FlightAware UK
05:30PM 52.4943 -1.5733 126° Southeast 384 442 20,000 -2,880 Descending FlightAware UK
05:30PM 52.4752 -1.5292 125° Southeast 382 440 19,100 -2,700 Descending FlightAware UK
05:30PM 52.4558 -1.4853 126° Southeast 380 437 18,400 -2,220 Descending FlightAware UK
05:31PM 52.4369 -1.4431 126° Southeast 374 430 17,800 -1,500 Descending FlightAware UK
05:31PM 52.4185 -1.4019 126° Southeast 362 417 17,500 -540 Descending FlightAware UK
05:31PM 52.4003 -1.3612 126° Southeast 360 414 17,500  Level FlightAware UK
05:32PM 52.3818 -1.3202 126° Southeast 364 419 17,500  Level FlightAware UK
05:32PM 52.3630 -1.2784 126° Southeast 368 423 17,500  Level FlightAware UK
05:32PM 52.3441 -1.2370 127° Southeast 372 428 17,500  Level FlightAware UK
05:32PM 52.3250 -1.1955 127° Southeast 372 428 17,500  Level FlightAware UK
05:33PM 52.3058 -1.1539 127° Southeast 372 428 17,500  Level FlightAware UK
05:33PM 52.2863 -1.1118 127° Southeast 372 428 17,500 -660 Level FlightAware UK
05:33PM 52.2671 -1.0701 127° Southeast 372 428 17,100 -1,200 Descending FlightAware UK
05:34PM 52.2482 -1.0290 127° Southeast 366 421 16,800 -1,020 Descending FlightAware UK
05:34PM 52.2292 -0.9875 127° Southeast 362 417 16,500 -1,020 Descending FlightAware UK
05:34PM 52.2105 -0.9473 127° Southeast 364 419 16,200 -840 Descending FlightAware UK
05:35PM 52.1915 -0.9070 128° Southeast 360 414 16,000 -1,020 Descending FlightAware UK
05:35PM 52.1722 -0.8663 128° Southeast 362 417 15,600 -1,200 Descending FlightAware UK
05:35PM 52.1530 -0.8260 128° Southeast 360 414 15,300 -1,500 Descending FlightAware UK
05:35PM 52.1340 -0.7862 128° Southeast 354 407 14,700 -1,380 Descending FlightAware UK
05:36PM 52.1162 -0.7491 128° Southeast 334 384 14,500 -720 Descending FlightAware UK
05:36PM 52.0993 -0.7133 127° Southeast 306 352 14,300 -840 Descending FlightAware UK
05:36PM 52.0842 -0.6797 126° Southeast 286 329 14,000 -1,500 Descending FlightAware UK
05:37PM 52.0767 -0.6397 107° East 280 322 13,400 -2,040 Descending FlightAware UK
05:37PM 52.0690 -0.6018 108° East 276 318 12,800 -2,040 Descending FlightAware UK
05:37PM 52.0619 -0.5640 107° East 272 313 12,200 -2,220 Descending FlightAware UK
05:38PM 52.0550 -0.5262 107° East 268 308 11,500 -2,340 Descending FlightAware UK
05:38PM 52.0593 -0.4882 79° East 268 308 10,800 -2,220 Descending FlightAware UK
05:38PM 52.0756 -0.4612 46° Northeast 262 302 10,200 -2,220 Descending FlightAware UK
05:38PM 52.0978 -0.4549 10° North 260 299 9,500 -2,340 Descending FlightAware UK
05:39PM 52.1156 -0.4716 330° Northwest 260 299 8,800 -1,860 Descending FlightAware UK
05:39PM 52.1213 -0.5009 287° West 258 297 8,400 -1,500 Descending FlightAware UK
05:39PM 52.1127 -0.5280 243° Southwest 256 295 7,900 -1,500 Descending FlightAware UK
05:40PM 52.0947 -0.5374 198° South 254 292 7,500 -1,500 Descending FlightAware UK
05:40PM 52.0756 -0.5245 157° South 252 290 7,000 -1,500 Descending FlightAware UK
05:40PM 52.0636 -0.4947 123° Southeast 250 288 6,600 -1,380 Descending FlightAware UK
05:41PM 52.0534 -0.4630 118° Southeast 250 288 6,200 -1,380 Descending FlightAware UK
05:41PM 52.0436 -0.4308 116° Southeast 246 283 5,800 -1,380 Descending FlightAware UK
05:41PM 52.0340 -0.3992 116° Southeast 244 281 5,400 -1,500 Descending FlightAware UK
05:41PM 52.0246 -0.3682 116° Southeast 242 278 4,900 -1,500 Descending FlightAware UK
05:42PM 52.0150 -0.3371 117° Southeast 242 278 4,500 -840 Descending FlightAware UK
05:42PM 52.0097 -0.3035 104° East 242 278 4,400 -540 Descending FlightAware UK
05:42PM 52.0055 -0.2678 101° East 242 278 4,200 -840 Descending FlightAware UK
05:43PM 52.0021 -0.2327 99° East 242 278 3,900 -840 Descending FlightAware UK
05:43PM 51.9986 -0.1979 99° East 238 274 3,700 -720 Descending FlightAware UK
05:43PM 51.9949 -0.1631 100° East 238 274 3,500 -720 Descending FlightAware UK
05:44PM 51.9913 -0.1285 100° East 236 272 3,300 -180 Descending FlightAware UK
05:44PM 51.9876 -0.0937 100° East 240 276 3,400 -360 Climbing FlightAware UK
05:44PM 51.9841 -0.0598 100° East 232 267 3,100 -1,020 Descending FlightAware UK
05:44PM 51.9713 -0.0361 131° Southeast 226 260 2,800 -1,020 Descending FlightAware UK
05:45PM 51.9538 -0.0333 174° South 218 251 2,500 -840 Descending FlightAware UK
05:45PM 51.9400 -0.0478 213° Southwest 206 237 2,300 -840 Descending FlightAware UK
05:45PM 51.9302 -0.0656 228° Southwest 192 221 2,000 -1,200 Descending FlightAware UK
05:46PM 51.9238 -0.0856 242° Southwest 190 219 1,600 -1,020 Descending FlightAware UK
05:46PM 51.9188 -0.1063 249° West 186 214 1,400 -360 Descending FlightAware UK
05:46PM 51.9153 -0.1274 255° West 186 214 1,400  Level FlightAware UK
05:47PM 51.9119 -0.1479 255° West 186 214 1,400 -360 Level FlightAware UK
05:47PM 51.9087 -0.1690 256° West 184 212 1,200 -720 Descending FlightAware UK
05:47PM 51.9056 -0.1888 256° West 172 198 1,000 -720 Descending FlightAware UK
05:47PM 51.9027 -0.2065 255° West 168 193 800 -720 Descending FlightAware UK
05:48PM 51.8996 -0.2244 255° West 164 189 600 -720 Descending FlightAware UK
05:48PM 51.8966 -0.2419 254° West 164 189 400 -840 Descending FlightAware UK
05:48PM 51.8936 -0.2593 254° West 162 186 100 -1,020 Descending FlightAware UK